sensor_id;sensor_type;location;lat;lon;timestamp;temperature;humidity
13585;DHT22;6863;48.402;9.994;2023-05-14T00:01:34;10.40;99.90
13585;DHT22;6863;48.402;9.994;2023-05-14T00:04:01;10.40;99.90
13585;DHT22;6863;48.402;9.994;2023-05-14T00:06:26;10.30;99.90
13585;DHT22;6863;48.402;9.994;2023-05-14T00:08:52;10.30;99.90
13585;DHT22;6863;48.402;9.994;2023-05-14T00:11:18;10.20;99.90
13585;DHT22;6863;48.402;9.994;2023-05-14T00:13:43;10.10;99.90
13585;DHT22;6863;48.402;9.994;2023-05-14T00:16:10;10.10;99.90
13585;DHT22;6863;48.402;9.994;2023-05-14T00:18:35;10.00;99.90
13585;DHT22;6863;48.402;9.994;2023-05-14T00:21:01;10.00;99.90
13585;DHT22;6863;48.402;9.994;2023-05-14T00:23:26;10.00;99.90
13585;DHT22;6863;48.402;9.994;2023-05-14T00:25:52;9.90;99.90
13585;DHT22;6863;48.402;9.994;2023-05-14T00:28:17;9.90;99.90
13585;DHT22;6863;48.402;9.994;2023-05-14T00:30:43;10.00;99.90
13585;DHT22;6863;48.402;9.994;2023-05-14T00:33:09;10.00;99.90
13585;DHT22;6863;48.402;9.994;2023-05-14T00:35:34;10.10;99.90
13585;DHT22;6863;48.402;9.994;2023-05-14T00:38:01;10.20;99.90
13585;DHT22;6863;48.402;9.994;2023-05-14T00:40:27;10.20;99.90
13585;DHT22;6863;48.402;9.994;2023-05-14T00:42:54;10.30;99.90
13585;DHT22;6863;48.402;9.994;2023-05-14T00:45:20;10.20;99.90
13585;DHT22;6863;48.402;9.994;2023-05-14T00:47:47;10.20;99.90
13585;DHT22;6863;48.402;9.994;2023-05-14T00:50:14;10.20;99.90
13585;DHT22;6863;48.402;9.994;2023-05-14T00:52:40;10.10;99.90
13585;DHT22;6863;48.402;9.994;2023-05-14T00:55:07;10.10;99.90
13585;DHT22;6863;48.402;9.994;2023-05-14T00:57:33;10.00;99.90
13585;DHT22;6863;48.402;9.994;2023-05-14T01:00:00;10.00;99.90
13585;DHT22;6863;48.402;9.994;2023-05-14T01:02:26;10.10;99.90
13585;DHT22;6863;48.402;9.994;2023-05-14T01:04:52;10.10;99.90
13585;DHT22;6863;48.402;9.994;2023-05-14T01:07:38;10.10;99.90
13585;DHT22;6863;48.402;9.994;2023-05-14T01:10:16;10.20;99.90
13585;DHT22;6863;48.402;9.994;2023-05-14T01:12:55;10.20;99.90
13585;DHT22;6863;48.402;9.994;2023-05-14T01:15:28;10.30;99.90
13585;DHT22;6863;48.402;9.994;2023-05-14T01:18:00;10.30;99.90
13585;DHT22;6863;48.402;9.994;2023-05-14T01:20:28;10.40;99.90
13585;DHT22;6863;48.402;9.994;2023-05-14T01:22:53;10.40;99.90
13585;DHT22;6863;48.402;9.994;2023-05-14T01:25:19;10.50;99.90
13585;DHT22;6863;48.402;9.994;2023-05-14T01:30:30;10.50;99.90
13585;DHT22;6863;48.402;9.994;2023-05-14T01:32:59;10.60;99.90
13585;DHT22;6863;48.402;9.994;2023-05-14T01:35:28;10.60;99.90
13585;DHT22;6863;48.402;9.994;2023-05-14T01:38:03;10.60;99.90
13585;DHT22;6863;48.402;9.994;2023-05-14T01:40:31;10.60;99.90
13585;DHT22;6863;48.402;9.994;2023-05-14T01:42:57;10.70;99.90
13585;DHT22;6863;48.402;9.994;2023-05-14T01:45:23;10.60;99.90
13585;DHT22;6863;48.402;9.994;2023-05-14T01:47:49;10.70;99.90
13585;DHT22;6863;48.402;9.994;2023-05-14T01:50:15;10.70;99.90
13585;DHT22;6863;48.402;9.994;2023-05-14T01:52:41;10.70;99.90
13585;DHT22;6863;48.402;9.994;2023-05-14T01:55:07;10.70;99.90
13585;DHT22;6863;48.402;9.994;2023-05-14T01:57:32;10.70;99.90
13585;DHT22;6863;48.402;9.994;2023-05-14T01:59:58;10.70;99.90
13585;DHT22;6863;48.402;9.994;2023-05-14T02:02:24;10.70;99.90
13585;DHT22;6863;48.402;9.994;2023-05-14T02:04:49;10.70;99.90
13585;DHT22;6863;48.402;9.994;2023-05-14T02:07:15;10.70;99.90
13585;DHT22;6863;48.402;9.994;2023-05-14T02:09:40;10.70;99.90
13585;DHT22;6863;48.402;9.994;2023-05-14T02:12:07;10.70;99.90
13585;DHT22;6863;48.402;9.994;2023-05-14T02:14:33;10.70;99.90
13585;DHT22;6863;48.402;9.994;2023-05-14T02:16:58;10.80;99.90
13585;DHT22;6863;48.402;9.994;2023-05-14T02:19:24;10.80;99.90
13585;DHT22;6863;48.402;9.994;2023-05-14T02:21:50;10.80;99.90
13585;DHT22;6863;48.402;9.994;2023-05-14T02:24:15;10.80;99.90
13585;DHT22;6863;48.402;9.994;2023-05-14T02:29:12;10.80;99.90
13585;DHT22;6863;48.402;9.994;2023-05-14T02:31:38;10.90;99.90
13585;DHT22;6863;48.402;9.994;2023-05-14T02:34:04;10.90;99.90
13585;DHT22;6863;48.402;9.994;2023-05-14T02:36:31;10.90;99.90
13585;DHT22;6863;48.402;9.994;2023-05-14T02:38:58;10.80;99.90
13585;DHT22;6863;48.402;9.994;2023-05-14T02:41:23;10.90;99.90
13585;DHT22;6863;48.402;9.994;2023-05-14T02:43:49;10.80;99.90
13585;DHT22;6863;48.402;9.994;2023-05-14T02:46:14;10.80;99.90
13585;DHT22;6863;48.402;9.994;2023-05-14T02:48:40;10.80;99.90
13585;DHT22;6863;48.402;9.994;2023-05-14T02:51:06;10.80;99.90
13585;DHT22;6863;48.402;9.994;2023-05-14T02:53:32;10.80;99.90
13585;DHT22;6863;48.402;9.994;2023-05-14T02:55:57;10.80;99.90
13585;DHT22;6863;48.402;9.994;2023-05-14T02:58:23;10.80;99.90
13585;DHT22;6863;48.402;9.994;2023-05-14T03:00:49;10.80;99.90
13585;DHT22;6863;48.402;9.994;2023-05-14T03:03:14;10.80;99.90
13585;DHT22;6863;48.402;9.994;2023-05-14T03:05:40;10.80;99.90
13585;DHT22;6863;48.402;9.994;2023-05-14T03:08:05;10.80;99.90
13585;DHT22;6863;48.402;9.994;2023-05-14T03:10:31;10.80;99.90
13585;DHT22;6863;48.402;9.994;2023-05-14T03:12:57;10.80;99.90
13585;DHT22;6863;48.402;9.994;2023-05-14T03:15:22;10.80;99.90
13585;DHT22;6863;48.402;9.994;2023-05-14T03:17:48;10.80;99.90
13585;DHT22;6863;48.402;9.994;2023-05-14T03:20:14;10.80;99.90
13585;DHT22;6863;48.402;9.994;2023-05-14T03:22:39;10.80;99.90
13585;DHT22;6863;48.402;9.994;2023-05-14T03:25:05;10.80;99.90
13585;DHT22;6863;48.402;9.994;2023-05-14T03:27:31;10.80;99.90
13585;DHT22;6863;48.402;9.994;2023-05-14T03:29:57;10.80;99.90
13585;DHT22;6863;48.402;9.994;2023-05-14T03:32:23;10.80;99.90
13585;DHT22;6863;48.402;9.994;2023-05-14T03:34:49;10.80;99.90
13585;DHT22;6863;48.402;9.994;2023-05-14T03:37:14;10.80;99.90
13585;DHT22;6863;48.402;9.994;2023-05-14T03:39:40;10.90;99.90
13585;DHT22;6863;48.402;9.994;2023-05-14T03:42:06;10.90;99.90
13585;DHT22;6863;48.402;9.994;2023-05-14T03:44:31;10.80;99.90
13585;DHT22;6863;48.402;9.994;2023-05-14T03:46:57;10.90;99.90
13585;DHT22;6863;48.402;9.994;2023-05-14T03:49:22;10.80;99.90
13585;DHT22;6863;48.402;9.994;2023-05-14T03:51:48;10.90;99.90
13585;DHT22;6863;48.402;9.994;2023-05-14T03:54:14;10.90;99.90
13585;DHT22;6863;48.402;9.994;2023-05-14T03:56:39;10.80;99.90
13585;DHT22;6863;48.402;9.994;2023-05-14T03:59:05;10.90;99.90
13585;DHT22;6863;48.402;9.994;2023-05-14T04:01:31;10.90;99.90
13585;DHT22;6863;48.402;9.994;2023-05-14T04:03:56;11.00;99.90
13585;DHT22;6863;48.402;9.994;2023-05-14T04:06:22;11.00;99.90
13585;DHT22;6863;48.402;9.994;2023-05-14T04:08:47;11.00;99.90
13585;DHT22;6863;48.402;9.994;2023-05-14T04:11:13;11.00;99.90
13585;DHT22;6863;48.402;9.994;2023-05-14T04:13:39;11.00;99.90
13585;DHT22;6863;48.402;9.994;2023-05-14T04:16:04;11.10;99.90
13585;DHT22;6863;48.402;9.994;2023-05-14T04:18:30;11.10;99.90
13585;DHT22;6863;48.402;9.994;2023-05-14T04:20:59;11.10;99.90
13585;DHT22;6863;48.402;9.994;2023-05-14T04:23:25;11.10;99.90
13585;DHT22;6863;48.402;9.994;2023-05-14T04:25:50;11.10;99.90
13585;DHT22;6863;48.402;9.994;2023-05-14T04:28:19;11.20;99.90
13585;DHT22;6863;48.402;9.994;2023-05-14T04:30:45;11.30;99.90
13585;DHT22;6863;48.402;9.994;2023-05-14T04:33:10;11.20;99.90
13585;DHT22;6863;48.402;9.994;2023-05-14T04:35:36;11.20;99.90
13585;DHT22;6863;48.402;9.994;2023-05-14T04:38:01;11.30;99.90
13585;DHT22;6863;48.402;9.994;2023-05-14T04:40:27;11.30;99.90
13585;DHT22;6863;48.402;9.994;2023-05-14T04:42:53;11.30;99.90
13585;DHT22;6863;48.402;9.994;2023-05-14T04:45:18;11.30;99.90
13585;DHT22;6863;48.402;9.994;2023-05-14T04:47:45;11.20;99.90
13585;DHT22;6863;48.402;9.994;2023-05-14T04:50:11;11.30;99.90
13585;DHT22;6863;48.402;9.994;2023-05-14T04:52:37;11.30;99.90
13585;DHT22;6863;48.402;9.994;2023-05-14T04:55:03;11.30;99.90
13585;DHT22;6863;48.402;9.994;2023-05-14T04:57:29;11.40;99.90
13585;DHT22;6863;48.402;9.994;2023-05-14T04:59:55;11.40;99.90
13585;DHT22;6863;48.402;9.994;2023-05-14T05:02:20;11.40;99.90
13585;DHT22;6863;48.402;9.994;2023-05-14T05:04:46;11.40;99.90
13585;DHT22;6863;48.402;9.994;2023-05-14T05:07:12;11.40;99.90
13585;DHT22;6863;48.402;9.994;2023-05-14T05:09:38;11.50;99.90
13585;DHT22;6863;48.402;9.994;2023-05-14T05:12:04;11.40;99.90
13585;DHT22;6863;48.402;9.994;2023-05-14T05:14:30;11.50;99.90
13585;DHT22;6863;48.402;9.994;2023-05-14T05:16:55;11.60;99.90
13585;DHT22;6863;48.402;9.994;2023-05-14T05:19:21;11.60;99.90
13585;DHT22;6863;48.402;9.994;2023-05-14T05:21:46;11.70;99.90
13585;DHT22;6863;48.402;9.994;2023-05-14T05:24:12;11.70;99.90
13585;DHT22;6863;48.402;9.994;2023-05-14T05:29:09;11.80;99.90
13585;DHT22;6863;48.402;9.994;2023-05-14T05:31:35;11.90;99.90
13585;DHT22;6863;48.402;9.994;2023-05-14T05:34:01;12.00;99.90
13585;DHT22;6863;48.402;9.994;2023-05-14T05:36:27;12.10;99.90
13585;DHT22;6863;48.402;9.994;2023-05-14T05:38:53;12.00;99.90
13585;DHT22;6863;48.402;9.994;2023-05-14T05:41:18;12.20;99.90
13585;DHT22;6863;48.402;9.994;2023-05-14T05:43:44;12.10;99.90
13585;DHT22;6863;48.402;9.994;2023-05-14T05:46:10;12.20;99.90
13585;DHT22;6863;48.402;9.994;2023-05-14T05:48:36;12.30;99.90
13585;DHT22;6863;48.402;9.994;2023-05-14T05:51:04;12.40;99.90
13585;DHT22;6863;48.402;9.994;2023-05-14T05:53:30;12.50;99.90
13585;DHT22;6863;48.402;9.994;2023-05-14T05:55:56;12.50;99.90
13585;DHT22;6863;48.402;9.994;2023-05-14T05:58:21;12.60;99.90
13585;DHT22;6863;48.402;9.994;2023-05-14T06:00:47;12.70;99.90
13585;DHT22;6863;48.402;9.994;2023-05-14T06:03:13;12.70;99.90
13585;DHT22;6863;48.402;9.994;2023-05-14T06:05:38;12.80;99.90
13585;DHT22;6863;48.402;9.994;2023-05-14T06:08:04;12.80;99.90
13585;DHT22;6863;48.402;9.994;2023-05-14T06:10:30;12.60;99.90
13585;DHT22;6863;48.402;9.994;2023-05-14T06:12:56;12.60;99.90
13585;DHT22;6863;48.402;9.994;2023-05-14T06:15:22;12.50;99.90
13585;DHT22;6863;48.402;9.994;2023-05-14T06:17:47;12.40;99.90
13585;DHT22;6863;48.402;9.994;2023-05-14T06:20:13;12.20;99.90
13585;DHT22;6863;48.402;9.994;2023-05-14T06:22:41;12.20;99.90
13585;DHT22;6863;48.402;9.994;2023-05-14T06:25:07;12.30;99.90
13585;DHT22;6863;48.402;9.994;2023-05-14T06:27:33;12.30;99.90
13585;DHT22;6863;48.402;9.994;2023-05-14T06:29:58;12.40;99.90
13585;DHT22;6863;48.402;9.994;2023-05-14T06:32:24;12.50;99.90
13585;DHT22;6863;48.402;9.994;2023-05-14T06:34:50;12.50;99.90
13585;DHT22;6863;48.402;9.994;2023-05-14T06:37:15;12.60;99.90
13585;DHT22;6863;48.402;9.994;2023-05-14T06:39:41;12.80;99.90
13585;DHT22;6863;48.402;9.994;2023-05-14T06:42:14;13.00;99.90
13585;DHT22;6863;48.402;9.994;2023-05-14T06:44:44;13.20;99.90
13585;DHT22;6863;48.402;9.994;2023-05-14T06:47:10;13.20;99.90
13585;DHT22;6863;48.402;9.994;2023-05-14T06:49:36;13.40;99.90
13585;DHT22;6863;48.402;9.994;2023-05-14T06:52:01;13.40;99.90
13585;DHT22;6863;48.402;9.994;2023-05-14T06:54:28;13.30;99.90
13585;DHT22;6863;48.402;9.994;2023-05-14T06:56:54;13.40;99.90
13585;DHT22;6863;48.402;9.994;2023-05-14T06:59:19;13.40;99.90
13585;DHT22;6863;48.402;9.994;2023-05-14T07:01:45;13.60;99.90
13585;DHT22;6863;48.402;9.994;2023-05-14T07:04:10;13.70;99.90
13585;DHT22;6863;48.402;9.994;2023-05-14T07:06:36;13.80;99.90
13585;DHT22;6863;48.402;9.994;2023-05-14T07:09:02;14.00;99.90
13585;DHT22;6863;48.402;9.994;2023-05-14T07:11:28;14.20;99.90
13585;DHT22;6863;48.402;9.994;2023-05-14T07:13:53;14.30;99.90
13585;DHT22;6863;48.402;9.994;2023-05-14T07:16:19;14.30;99.90
13585;DHT22;6863;48.402;9.994;2023-05-14T07:18:45;14.10;99.90
13585;DHT22;6863;48.402;9.994;2023-05-14T07:21:11;14.30;99.90
13585;DHT22;6863;48.402;9.994;2023-05-14T07:23:36;14.50;99.90
13585;DHT22;6863;48.402;9.994;2023-05-14T07:26:05;14.60;99.90
13585;DHT22;6863;48.402;9.994;2023-05-14T07:28:31;14.50;99.90
13585;DHT22;6863;48.402;9.994;2023-05-14T07:30:58;14.80;99.90
13585;DHT22;6863;48.402;9.994;2023-05-14T07:33:24;15.10;99.70
13585;DHT22;6863;48.402;9.994;2023-05-14T07:35:50;15.00;99.50
13585;DHT22;6863;48.402;9.994;2023-05-14T07:38:17;14.80;99.50
13585;DHT22;6863;48.402;9.994;2023-05-14T07:40:43;14.60;99.80
13585;DHT22;6863;48.402;9.994;2023-05-14T07:43:09;14.70;99.70
13585;DHT22;6863;48.402;9.994;2023-05-14T07:45:37;14.70;99.90
13585;DHT22;6863;48.402;9.994;2023-05-14T07:48:03;14.70;99.60
13585;DHT22;6863;48.402;9.994;2023-05-14T07:50:29;14.70;99.40
13585;DHT22;6863;48.402;9.994;2023-05-14T07:52:55;14.50;99.30
13585;DHT22;6863;48.402;9.994;2023-05-14T07:55:21;14.30;99.70
13585;DHT22;6863;48.402;9.994;2023-05-14T07:57:47;14.20;99.90
13585;DHT22;6863;48.402;9.994;2023-05-14T08:00:13;14.20;99.90
13585;DHT22;6863;48.402;9.994;2023-05-14T08:02:38;14.30;99.60
13585;DHT22;6863;48.402;9.994;2023-05-14T08:05:04;14.50;99.50
13585;DHT22;6863;48.402;9.994;2023-05-14T08:07:30;14.60;99.40
13585;DHT22;6863;48.402;9.994;2023-05-14T08:09:56;14.50;99.20
13585;DHT22;6863;48.402;9.994;2023-05-14T08:12:21;14.90;99.20
13585;DHT22;6863;48.402;9.994;2023-05-14T08:14:47;15.10;98.60
13585;DHT22;6863;48.402;9.994;2023-05-14T08:17:13;15.10;98.10
13585;DHT22;6863;48.402;9.994;2023-05-14T08:19:39;14.90;98.20
13585;DHT22;6863;48.402;9.994;2023-05-14T08:22:04;14.90;98.20
13585;DHT22;6863;48.402;9.994;2023-05-14T08:24:30;15.00;97.70
13585;DHT22;6863;48.402;9.994;2023-05-14T08:26:56;15.20;97.50
13585;DHT22;6863;48.402;9.994;2023-05-14T08:29:21;15.30;97.20
13585;DHT22;6863;48.402;9.994;2023-05-14T08:31:48;15.20;97.60
13585;DHT22;6863;48.402;9.994;2023-05-14T08:34:14;15.10;97.30
13585;DHT22;6863;48.402;9.994;2023-05-14T08:36:40;15.20;97.30
13585;DHT22;6863;48.402;9.994;2023-05-14T08:39:06;15.40;96.90
13585;DHT22;6863;48.402;9.994;2023-05-14T08:41:32;15.20;96.90
13585;DHT22;6863;48.402;9.994;2023-05-14T08:44:14;15.10;97.20
13585;DHT22;6863;48.402;9.994;2023-05-14T08:46:43;14.70;97.70
13585;DHT22;6863;48.402;9.994;2023-05-14T08:51:56;14.60;98.00
13585;DHT22;6863;48.402;9.994;2023-05-14T08:54:22;14.60;98.20
13585;DHT22;6863;48.402;9.994;2023-05-14T08:56:50;14.40;98.10
13585;DHT22;6863;48.402;9.994;2023-05-14T08:59:16;14.10;98.40
13585;DHT22;6863;48.402;9.994;2023-05-14T09:01:46;14.10;98.80
13585;DHT22;6863;48.402;9.994;2023-05-14T09:04:15;13.90;98.80
13585;DHT22;6863;48.402;9.994;2023-05-14T09:06:44;14.00;98.90
13585;DHT22;6863;48.402;9.994;2023-05-14T09:09:16;13.80;99.60
13585;DHT22;6863;48.402;9.994;2023-05-14T09:11:44;14.00;99.60
13585;DHT22;6863;48.402;9.994;2023-05-14T09:14:13;14.10;99.10
13585;DHT22;6863;48.402;9.994;2023-05-14T09:16:39;14.20;99.10
13585;DHT22;6863;48.402;9.994;2023-05-14T09:19:07;14.10;99.30
13585;DHT22;6863;48.402;9.994;2023-05-14T09:21:33;14.20;99.10
13585;DHT22;6863;48.402;9.994;2023-05-14T09:23:59;14.70;98.80
13585;DHT22;6863;48.402;9.994;2023-05-14T09:26:25;15.10;98.20
13585;DHT22;6863;48.402;9.994;2023-05-14T09:28:55;15.60;97.60
13585;DHT22;6863;48.402;9.994;2023-05-14T09:31:22;16.20;96.50
13585;DHT22;6863;48.402;9.994;2023-05-14T09:33:50;16.40;95.80
13585;DHT22;6863;48.402;9.994;2023-05-14T09:36:16;16.60;95.00
13585;DHT22;6863;48.402;9.994;2023-05-14T09:38:41;16.70;95.10
13585;DHT22;6863;48.402;9.994;2023-05-14T09:41:07;16.60;94.70
13585;DHT22;6863;48.402;9.994;2023-05-14T09:43:33;16.80;94.90
13585;DHT22;6863;48.402;9.994;2023-05-14T09:45:58;16.90;94.20
13585;DHT22;6863;48.402;9.994;2023-05-14T09:48:24;17.00;94.30
13585;DHT22;6863;48.402;9.994;2023-05-14T09:50:50;17.10;93.80
13585;DHT22;6863;48.402;9.994;2023-05-14T09:53:19;17.00;94.30
13585;DHT22;6863;48.402;9.994;2023-05-14T09:55:45;17.30;94.30
13585;DHT22;6863;48.402;9.994;2023-05-14T09:58:10;17.70;93.30
13585;DHT22;6863;48.402;9.994;2023-05-14T10:00:38;17.90;92.60
13585;DHT22;6863;48.402;9.994;2023-05-14T10:03:08;17.70;93.20
13585;DHT22;6863;48.402;9.994;2023-05-14T10:05:35;18.00;92.80
13585;DHT22;6863;48.402;9.994;2023-05-14T10:08:08;18.10;92.40
13585;DHT22;6863;48.402;9.994;2023-05-14T10:10:37;18.40;92.00
13585;DHT22;6863;48.402;9.994;2023-05-14T10:13:05;18.60;91.40
13585;DHT22;6863;48.402;9.994;2023-05-14T10:15:46;17.90;92.10
13585;DHT22;6863;48.402;9.994;2023-05-14T10:18:18;17.70;92.50
13585;DHT22;6863;48.402;9.994;2023-05-14T10:20:47;17.50;93.10
13585;DHT22;6863;48.402;9.994;2023-05-14T10:23:17;17.80;92.80
13585;DHT22;6863;48.402;9.994;2023-05-14T10:25:43;18.00;92.70
13585;DHT22;6863;48.402;9.994;2023-05-14T10:28:12;18.70;91.50
13585;DHT22;6863;48.402;9.994;2023-05-14T10:30:44;19.60;90.70
13585;DHT22;6863;48.402;9.994;2023-05-14T10:33:12;20.30;87.50
13585;DHT22;6863;48.402;9.994;2023-05-14T10:36:05;20.50;86.60
13585;DHT22;6863;48.402;9.994;2023-05-14T10:38:33;20.00;87.30
13585;DHT22;6863;48.402;9.994;2023-05-14T10:41:09;19.70;87.60
13585;DHT22;6863;48.402;9.994;2023-05-14T10:43:39;19.30;88.60
13585;DHT22;6863;48.402;9.994;2023-05-14T10:46:07;19.90;87.40
13585;DHT22;6863;48.402;9.994;2023-05-14T10:48:33;21.20;84.40
13585;DHT22;6863;48.402;9.994;2023-05-14T10:51:00;22.30;79.90
13585;DHT22;6863;48.402;9.994;2023-05-14T10:55:56;23.00;73.00
13585;DHT22;6863;48.402;9.994;2023-05-14T10:58:23;22.00;75.80
13585;DHT22;6863;48.402;9.994;2023-05-14T11:00:53;22.00;76.40
13585;DHT22;6863;48.402;9.994;2023-05-14T11:03:20;22.20;74.70
13585;DHT22;6863;48.402;9.994;2023-05-14T11:05:45;22.00;74.00
13585;DHT22;6863;48.402;9.994;2023-05-14T11:08:12;21.90;73.70
13585;DHT22;6863;48.402;9.994;2023-05-14T11:10:38;21.60;74.40
13585;DHT22;6863;48.402;9.994;2023-05-14T11:13:04;21.10;74.90
13585;DHT22;6863;48.402;9.994;2023-05-14T11:15:30;21.00;75.40
13585;DHT22;6863;48.402;9.994;2023-05-14T11:17:56;20.50;76.40
13585;DHT22;6863;48.402;9.994;2023-05-14T11:20:21;20.10;77.40
13585;DHT22;6863;48.402;9.994;2023-05-14T11:22:48;20.00;78.70
13585;DHT22;6863;48.402;9.994;2023-05-14T11:25:15;19.20;80.60
13585;DHT22;6863;48.402;9.994;2023-05-14T11:27:43;19.10;82.60
13585;DHT22;6863;48.402;9.994;2023-05-14T11:30:13;18.90;83.40
13585;DHT22;6863;48.402;9.994;2023-05-14T11:32:39;18.80;83.80
13585;DHT22;6863;48.402;9.994;2023-05-14T11:35:05;19.00;83.90
13585;DHT22;6863;48.402;9.994;2023-05-14T11:37:31;19.30;82.00
13585;DHT22;6863;48.402;9.994;2023-05-14T11:40:00;20.40;79.70
13585;DHT22;6863;48.402;9.994;2023-05-14T11:42:26;21.50;75.90
13585;DHT22;6863;48.402;9.994;2023-05-14T11:44:52;21.80;72.70
13585;DHT22;6863;48.402;9.994;2023-05-14T11:47:21;21.60;72.40
13585;DHT22;6863;48.402;9.994;2023-05-14T11:49:47;21.00;74.50
13585;DHT22;6863;48.402;9.994;2023-05-14T11:52:14;20.70;75.80
13585;DHT22;6863;48.402;9.994;2023-05-14T11:54:41;20.70;75.50
13585;DHT22;6863;48.402;9.994;2023-05-14T11:57:12;21.20;75.40
13585;DHT22;6863;48.402;9.994;2023-05-14T11:59:38;22.10;74.50
13585;DHT22;6863;48.402;9.994;2023-05-14T12:02:07;23.40;69.70
13585;DHT22;6863;48.402;9.994;2023-05-14T12:04:32;23.50;68.00
13585;DHT22;6863;48.402;9.994;2023-05-14T12:06:59;23.40;66.40
13585;DHT22;6863;48.402;9.994;2023-05-14T12:09:25;23.40;67.60
13585;DHT22;6863;48.402;9.994;2023-05-14T12:11:51;24.10;65.30
13585;DHT22;6863;48.402;9.994;2023-05-14T12:14:23;24.40;63.90
13585;DHT22;6863;48.402;9.994;2023-05-14T12:16:49;24.60;62.60
13585;DHT22;6863;48.402;9.994;2023-05-14T12:19:17;24.20;62.90
13585;DHT22;6863;48.402;9.994;2023-05-14T12:21:45;23.30;65.50
13585;DHT22;6863;48.402;9.994;2023-05-14T12:24:13;23.00;65.50
13585;DHT22;6863;48.402;9.994;2023-05-14T12:29:11;21.90;67.40
13585;DHT22;6863;48.402;9.994;2023-05-14T12:31:47;21.70;69.00
13585;DHT22;6863;48.402;9.994;2023-05-14T12:34:14;21.50;70.30
13585;DHT22;6863;48.402;9.994;2023-05-14T12:36:40;21.10;71.90
13585;DHT22;6863;48.402;9.994;2023-05-14T12:39:06;21.20;71.50
13585;DHT22;6863;48.402;9.994;2023-05-14T12:41:32;21.50;72.50
13585;DHT22;6863;48.402;9.994;2023-05-14T12:44:04;21.70;73.30
13585;DHT22;6863;48.402;9.994;2023-05-14T12:46:31;20.80;78.00
13585;DHT22;6863;48.402;9.994;2023-05-14T12:48:57;20.40;80.10
13585;DHT22;6863;48.402;9.994;2023-05-14T12:51:23;20.00;84.60
13585;DHT22;6863;48.402;9.994;2023-05-14T12:53:49;19.80;85.40
13585;DHT22;6863;48.402;9.994;2023-05-14T12:56:16;20.10;87.30
13585;DHT22;6863;48.402;9.994;2023-05-14T12:58:41;20.20;85.10
13585;DHT22;6863;48.402;9.994;2023-05-14T13:01:07;20.30;86.70
13585;DHT22;6863;48.402;9.994;2023-05-14T13:03:33;20.30;85.90
13585;DHT22;6863;48.402;9.994;2023-05-14T13:06:02;20.50;86.30
13585;DHT22;6863;48.402;9.994;2023-05-14T13:08:28;21.00;83.90
13585;DHT22;6863;48.402;9.994;2023-05-14T13:10:56;21.50;83.00
13585;DHT22;6863;48.402;9.994;2023-05-14T13:13:22;22.10;80.80
13585;DHT22;6863;48.402;9.994;2023-05-14T13:15:48;22.30;79.80
13585;DHT22;6863;48.402;9.994;2023-05-14T13:18:15;22.20;76.40
13585;DHT22;6863;48.402;9.994;2023-05-14T13:20:47;22.60;76.90
13585;DHT22;6863;48.402;9.994;2023-05-14T13:23:13;22.70;74.40
13585;DHT22;6863;48.402;9.994;2023-05-14T13:25:39;22.10;75.20
13585;DHT22;6863;48.402;9.994;2023-05-14T13:28:05;22.00;76.20
13585;DHT22;6863;48.402;9.994;2023-05-14T13:30:34;21.70;76.10
13585;DHT22;6863;48.402;9.994;2023-05-14T13:33:00;21.00;73.40
13585;DHT22;6863;48.402;9.994;2023-05-14T13:35:26;19.90;75.30
13585;DHT22;6863;48.402;9.994;2023-05-14T13:37:52;19.20;77.90
13585;DHT22;6863;48.402;9.994;2023-05-14T13:40:17;19.00;80.40
13585;DHT22;6863;48.402;9.994;2023-05-14T13:42:43;18.80;81.80
13585;DHT22;6863;48.402;9.994;2023-05-14T13:45:09;18.60;85.10
13585;DHT22;6863;48.402;9.994;2023-05-14T13:47:36;18.80;83.20
13585;DHT22;6863;48.402;9.994;2023-05-14T13:50:04;18.60;85.10
13585;DHT22;6863;48.402;9.994;2023-05-14T13:52:30;18.90;87.90
13585;DHT22;6863;48.402;9.994;2023-05-14T13:54:59;19.30;85.30
13585;DHT22;6863;48.402;9.994;2023-05-14T13:57:25;19.60;84.50
13585;DHT22;6863;48.402;9.994;2023-05-14T13:59:53;20.10;84.30
13585;DHT22;6863;48.402;9.994;2023-05-14T14:02:18;20.60;82.70
13585;DHT22;6863;48.402;9.994;2023-05-14T14:04:44;20.80;82.50
13585;DHT22;6863;48.402;9.994;2023-05-14T14:07:10;20.60;82.40
13585;DHT22;6863;48.402;9.994;2023-05-14T14:09:38;20.10;84.70
13585;DHT22;6863;48.402;9.994;2023-05-14T14:12:06;19.50;87.90
13585;DHT22;6863;48.402;9.994;2023-05-14T14:14:32;18.90;86.70
13585;DHT22;6863;48.402;9.994;2023-05-14T14:17:00;18.60;88.30
13585;DHT22;6863;48.402;9.994;2023-05-14T14:19:33;18.40;88.60
13585;DHT22;6863;48.402;9.994;2023-05-14T14:21:59;18.30;89.00
13585;DHT22;6863;48.402;9.994;2023-05-14T14:24:25;18.00;89.40
13585;DHT22;6863;48.402;9.994;2023-05-14T14:26:51;17.80;90.20
13585;DHT22;6863;48.402;9.994;2023-05-14T14:29:21;17.70;89.60
13585;DHT22;6863;48.402;9.994;2023-05-14T14:31:48;17.40;90.70
13585;DHT22;6863;48.402;9.994;2023-05-14T14:34:15;17.30;92.10
13585;DHT22;6863;48.402;9.994;2023-05-14T14:36:47;17.30;92.20
13585;DHT22;6863;48.402;9.994;2023-05-14T14:39:13;17.20;92.90
13585;DHT22;6863;48.402;9.994;2023-05-14T14:41:38;17.10;94.30
13585;DHT22;6863;48.402;9.994;2023-05-14T14:44:07;16.90;95.60
13585;DHT22;6863;48.402;9.994;2023-05-14T14:46:33;16.80;96.30
13585;DHT22;6863;48.402;9.994;2023-05-14T14:48:58;16.70;96.50
13585;DHT22;6863;48.402;9.994;2023-05-14T14:51:24;16.70;96.80
13585;DHT22;6863;48.402;9.994;2023-05-14T14:53:50;16.60;96.50
13585;DHT22;6863;48.402;9.994;2023-05-14T14:56:18;16.50;96.40
13585;DHT22;6863;48.402;9.994;2023-05-14T14:58:47;16.40;97.30
13585;DHT22;6863;48.402;9.994;2023-05-14T15:01:12;16.20;98.40
13585;DHT22;6863;48.402;9.994;2023-05-14T15:03:40;16.00;98.60
13585;DHT22;6863;48.402;9.994;2023-05-14T15:06:10;15.90;99.60
13585;DHT22;6863;48.402;9.994;2023-05-14T15:08:47;15.70;99.60
13585;DHT22;6863;48.402;9.994;2023-05-14T15:11:16;15.50;99.50
13585;DHT22;6863;48.402;9.994;2023-05-14T15:13:41;15.50;99.90
13585;DHT22;6863;48.402;9.994;2023-05-14T15:16:08;15.40;99.90
13585;DHT22;6863;48.402;9.994;2023-05-14T15:18:37;15.30;99.90
13585;DHT22;6863;48.402;9.994;2023-05-14T15:21:06;15.20;99.90
13585;DHT22;6863;48.402;9.994;2023-05-14T15:23:34;15.00;99.90
13585;DHT22;6863;48.402;9.994;2023-05-14T15:26:03;15.00;99.90
13585;DHT22;6863;48.402;9.994;2023-05-14T15:28:32;15.00;99.90
13585;DHT22;6863;48.402;9.994;2023-05-14T15:31:06;15.10;99.90
13585;DHT22;6863;48.402;9.994;2023-05-14T15:33:32;15.10;99.90
13585;DHT22;6863;48.402;9.994;2023-05-14T15:35:58;15.10;99.90
13585;DHT22;6863;48.402;9.994;2023-05-14T15:38:23;14.90;99.90
13585;DHT22;6863;48.402;9.994;2023-05-14T15:40:50;14.90;99.90
13585;DHT22;6863;48.402;9.994;2023-05-14T15:43:15;14.90;99.90
13585;DHT22;6863;48.402;9.994;2023-05-14T15:45:43;15.10;99.90
13585;DHT22;6863;48.402;9.994;2023-05-14T15:48:09;15.30;99.90
13585;DHT22;6863;48.402;9.994;2023-05-14T15:50:38;15.50;99.90
13585;DHT22;6863;48.402;9.994;2023-05-14T15:53:04;15.60;99.90
13585;DHT22;6863;48.402;9.994;2023-05-14T15:55:30;15.50;99.90
13585;DHT22;6863;48.402;9.994;2023-05-14T15:57:57;15.40;99.90
13585;DHT22;6863;48.402;9.994;2023-05-14T16:00:26;15.40;99.90